Time;durP1;ratioP1;P1;durP2;ratioP2;P2;SDS_P1;SDS_P2;PMS_P1;PMS_P2;Temp;Humidity;BMP_temperature;BMP_pressure;BME280_temperature;BME280_humidity;BME280_pressure;Samples;Min_cycle;Max_cycle;Signal;HPM_P1;HPM_P2
2024/02/20 00:01:56;;;;;;;28.17;14.20;;;;;;;3.58;75.05;100137.81;4907480;29;20043;-95
2024/02/20 00:04:22;;;;;;;23.30;14.40;;;;;;;3.84;74.60;100158.34;4922318;29;20043;-94
2024/02/20 00:06:47;;;;;;;31.05;16.80;;;;;;;3.58;75.12;100140.47;4922658;29;20039;-95
2024/02/20 00:09:13;;;;;;;29.15;15.23;;;;;;;3.50;75.65;100136.16;4891613;29;20040;-95
2024/02/20 00:11:39;;;;;;;30.65;16.75;;;;;;;3.56;75.61;100150.50;4906952;29;20483;-94
2024/02/20 00:14:09;;;;;;;27.27;15.35;;;;;;;3.63;74.68;100140.69;4922869;29;20036;-95
2024/02/20 00:16:35;;;;;;;24.95;15.95;;;;;;;3.75;74.99;100139.03;4907648;29;20090;-95
2024/02/20 00:19:02;;;;;;;29.77;15.13;;;;;;;4.04;74.62;100161.78;4891898;29;20038;-95
2024/02/20 00:21:30;;;;;;;29.77;15.30;;;;;;;4.02;74.20;100157.69;4919003;29;20068;-95
2024/02/20 00:23:58;;;;;;;28.10;15.43;;;;;;;3.82;74.36;100145.22;4896554;29;20035;-96
2024/02/20 00:26:24;;;;;;;25.05;14.75;;;;;;;3.70;74.63;100146.03;4902544;29;20055;-95
2024/02/20 00:28:51;;;;;;;28.48;15.25;;;;;;;3.52;74.80;100144.78;4938315;29;20105;-95
2024/02/20 00:31:19;;;;;;;30.83;15.95;;;;;;;3.51;75.26;100135.16;4942067;29;20051;-95
2024/02/20 00:33:47;;;;;;;27.58;15.15;;;;;;;3.54;75.08;100132.06;4927463;29;20501;-95
2024/02/20 00:36:14;;;;;;;26.25;15.85;;;;;;;3.57;75.12;100134.34;4910335;29;20035;-94
2024/02/20 00:38:41;;;;;;;28.70;16.25;;;;;;;3.54;75.45;100132.06;4941814;29;20034;-94
2024/02/20 00:41:07;;;;;;;29.98;14.43;;;;;;;3.57;75.17;100125.53;4910559;29;20067;-94
2024/02/20 00:43:34;;;;;;;27.90;15.25;;;;;;;3.54;75.87;100144.56;4926974;29;20027;-94
2024/02/20 00:46:01;;;;;;;27.42;16.23;;;;;;;3.42;75.17;100128.38;4928881;29;20042;-96
2024/02/20 00:48:27;;;;;;;26.88;15.07;;;;;;;3.34;75.60;100126.75;4929895;29;20054;-96
2024/02/20 00:50:54;;;;;;;30.02;15.68;;;;;;;3.42;75.19;100121.22;4929533;29;20040;-96
2024/02/20 00:53:20;;;;;;;25.02;15.07;;;;;;;3.42;75.35;100120.38;4929464;29;20038;-96
2024/02/20 00:55:46;;;;;;;26.13;15.13;;;;;;;3.35;75.36;100112.41;4928821;29;20106;-96
2024/02/20 00:58:12;;;;;;;25.73;15.63;;;;;;;3.38;75.54;100105.84;4912789;29;20067;-96
2024/02/20 01:00:39;;;;;;;28.30;15.20;;;;;;;3.54;75.25;100131.25;4913801;29;20039;-96
2024/02/20 01:03:05;;;;;;;29.02;16.20;;;;;;;3.46;75.18;100113.63;4935413;29;20035;-96
2024/02/20 01:05:35;;;;;;;29.23;15.90;;;;;;;3.42;74.78;100102.59;4935278;29;20035;-96
2024/02/20 01:08:04;;;;;;;26.33;15.43;;;;;;;3.45;75.16;100106.69;4934918;29;20035;-96
2024/02/20 01:10:30;;;;;;;26.58;15.18;;;;;;;3.34;75.37;100100.13;4936880;29;20091;-94
2024/02/20 01:13:00;;;;;;;27.80;15.38;;;;;;;3.49;75.44;100133.72;4920419;29;20090;-96
2024/02/20 01:15:26;;;;;;;32.22;15.98;;;;;;;3.37;75.33;100105.03;4936447;29;20387;-96
2024/02/20 01:17:53;;;;;;;27.88;15.35;;;;;;;3.27;75.58;100101.13;4935407;29;20039;-96
2024/02/20 01:20:27;;;;;;;30.25;15.02;;;;;;;3.37;75.17;100106.88;4935175;29;20039;-96
2024/02/20 01:22:53;;;;;;;31.85;17.38;;;;;;;3.36;74.67;100102.56;4937417;29;20042;-96
2024/02/20 01:25:21;;;;;;;29.38;16.33;;;;;;;3.46;75.42;100116.28;4935170;29;20050;-96
2024/02/20 01:27:47;;;;;;;26.88;16.50;;;;;;;3.52;74.73;100102.16;4936016;29;20506;-96
2024/02/20 01:30:13;;;;;;;35.65;17.80;;;;;;;3.46;75.02;100102.19;4934922;29;20047;-96
2024/02/20 01:32:42;;;;;;;29.73;17.90;;;;;;;3.63;74.53;100112.22;4928270;29;20043;-96
2024/02/20 01:35:15;;;;;;;24.40;16.17;;;;;;;3.67;75.27;100109.97;4930014;29;20059;-96
2024/02/20 01:37:41;;;;;;;27.52;15.85;;;;;;;3.63;74.98;100103.41;4915026;29;20015;-96
2024/02/20 01:40:11;;;;;;;32.58;17.85;;;;;;;3.65;75.39;100098.69;4943719;29;20097;-96
2024/02/20 01:42:38;;;;;;;30.02;17.02;;;;;;;3.81;74.60;100111.59;4929460;29;20061;-96
2024/02/20 01:45:08;;;;;;;28.45;17.00;;;;;;;3.76;74.54;100100.75;4945069;29;20073;-96
2024/02/20 01:47:34;;;;;;;27.17;16.00;;;;;;;3.63;74.92;100090.94;4913116;29;20560;-96
2024/02/20 01:50:01;;;;;;;32.72;19.27;;;;;;;3.68;74.87;100094.81;4929047;29;20035;-96
2024/02/20 01:52:32;;;;;;;36.97;19.25;;;;;;;3.40;75.08;100082.50;4944325;29;20078;-96
2024/02/20 01:55:00;;;;;;;30.88;17.60;;;;;;;3.56;75.71;100107.91;4928794;29;20031;-96
2024/02/20 01:57:26;;;;;;;38.33;18.90;;;;;;;3.47;75.80;100091.34;4950531;29;20035;-96
2024/02/20 01:59:52;;;;;;;35.95;18.63;;;;;;;3.53;75.51;100090.50;4934271;28;20047;-96
2024/02/20 02:02:21;;;;;;;38.38;20.73;;;;;;;3.51;75.23;100095.22;4930169;29;20418;-96
2024/02/20 02:04:46;;;;;;;37.03;20.88;;;;;;;3.51;75.92;100089.06;4931076;29;20039;-95
2024/02/20 02:07:20;;;;;;;32.20;19.42;;;;;;;3.64;75.62;100105.06;4933979;29;20027;-96
2024/02/20 02:09:56;;;;;;;29.25;18.50;;;;;;;3.62;75.44;100094.59;4936496;29;20051;-96
2024/02/20 02:12:27;;;;;;;35.13;17.48;;;;;;;3.62;75.37;100093.78;4952621;29;20027;-96
2024/02/20 02:14:53;;;;;;;37.38;17.75;;;;;;;3.60;75.52;100090.50;4931553;29;20031;-96
2024/02/20 02:17:24;;;;;;;31.45;18.33;;;;;;;3.56;75.51;100068.78;4931852;29;20031;-96
2024/02/20 02:19:52;;;;;;;33.80;16.88;;;;;;;3.58;75.07;100073.91;4947130;29;20106;-96
2024/02/20 02:22:18;;;;;;;30.15;15.73;;;;;;;3.81;75.14;100098.28;4915864;29;20035;-96
2024/02/20 02:25:12;;;;;;;30.30;14.45;;;;;;;3.77;75.01;100089.06;4936697;29;20047;-96
2024/02/20 02:28:00;;;;;;;25.08;15.55;;;;;;;3.64;74.80;100083.75;4953564;29;20046;-96
2024/02/20 02:31:06;;;;;;;25.08;15.15;;;;;;;3.88;75.02;100114.28;4934298;29;20055;-96
2024/02/20 02:33:40;;;;;;;22.38;14.25;;;;;;;3.82;74.76;100093.78;4895389;29;20044;-96
2024/02/20 02:36:07;;;;;;;25.00;14.60;;;;;;;3.83;73.92;100090.91;4877623;29;20089;-96
2024/02/20 02:41:17;;;;;;;27.73;15.63;;;;;;;3.81;75.04;100090.28;5044690;23;20054;-96
2024/02/20 02:43:45;;;;;;;26.92;15.88;;;;;;;3.92;75.06;100096.84;4946375;28;20523;-96
2024/02/20 02:46:12;;;;;;;35.35;18.02;;;;;;;3.94;74.42;100089.44;4930442;28;20133;-96
2024/02/20 02:48:37;;;;;;;28.33;18.17;;;;;;;4.01;73.77;100092.13;4930970;28;20034;-95
2024/02/20 02:51:08;;;;;;;36.33;19.17;;;;;;;3.97;74.30;100075.72;4930242;28;20030;-96
2024/02/20 02:53:34;;;;;;;48.20;21.67;;;;;;;3.99;74.14;100088.84;4931098;28;20027;-95
2024/02/20 02:56:10;;;;;;;38.22;22.50;;;;;;;4.06;74.17;100094.97;4931402;28;20037;-96
2024/02/20 02:58:36;;;;;;;38.03;20.98;;;;;;;3.97;73.96;100085.56;4947846;28;20109;-96
2024/02/20 03:01:02;;;;;;;37.00;21.15;;;;;;;4.14;74.40;100110.75;4930984;28;20137;-96
2024/02/20 03:03:30;;;;;;;40.45;24.13;;;;;;;4.07;74.11;100093.13;4946639;28;20027;-95
2024/02/20 03:05:56;;;;;;;51.72;25.85;;;;;;;4.03;73.83;100085.56;4931281;28;20078;-95
2024/02/20 03:08:25;;;;;;;40.53;24.65;;;;;;;4.05;73.70;100088.81;4931611;28;20405;-96
2024/02/20 03:10:59;;;;;;;36.45;21.40;;;;;;;4.04;73.99;100086.38;4930909;28;20035;-96
2024/02/20 03:13:26;;;;;;;38.65;21.83;;;;;;;4.00;74.02;100080.63;4932287;28;20022;-96
2024/02/20 03:15:54;;;;;;;38.22;20.75;;;;;;;4.07;74.28;100101.09;4946491;28;20025;-96
2024/02/20 03:18:23;;;;;;;33.25;21.05;;;;;;;4.05;74.00;100099.50;4930598;28;20073;-96
2024/02/20 03:29:10;;;;;;;52.42;25.67;;;;;;;4.15;73.92;100101.72;4959385;28;20106;-96
2024/02/20 03:31:42;;;;;;;45.38;23.75;;;;;;;4.17;73.55;100104.16;4913563;29;20589;-95
2024/02/20 03:34:08;;;;;;;;;;;;;;;4.30;74.21;100124.66;4912796;29;20050;-96
2024/02/20 03:36:36;;;;;;;33.20;20.83;;;;;;;4.05;74.62;100104.00;4927675;29;19918;-96
2024/02/20 03:39:02;;;;;;;43.42;21.77;;;;;;;4.14;73.71;100102.75;4911533;29;20023;-96
2024/02/20 03:41:28;;;;;;;47.10;24.25;;;;;;;4.12;73.85;100107.47;4912098;29;20031;-96
2024/02/20 03:43:54;;;;;;;47.03;23.67;;;;;;;4.15;74.09;100101.72;4912252;29;20058;-96
2024/02/20 03:46:19;;;;;;;44.47;22.50;;;;;;;4.20;74.31;100117.91;4911932;29;20027;-96
2024/02/20 03:48:45;;;;;;;43.60;21.60;;;;;;;4.13;74.79;100100.28;4911925;29;20028;-96
2024/02/20 03:51:11;;;;;;;40.65;21.92;;;;;;;4.21;74.19;100113.38;4912248;29;20182;-95
2024/02/20 03:53:37;;;;;;;39.30;21.88;;;;;;;4.24;74.86;100107.66;4912664;29;20498;-96
2024/02/20 03:56:03;;;;;;;39.03;20.85;;;;;;;4.21;73.95;100094.72;4913254;29;20125;-96
2024/02/20 03:58:28;;;;;;;40.45;20.52;;;;;;;4.18;74.43;100103.97;4911623;29;20062;-96
2024/02/20 04:00:57;;;;;;;40.83;21.67;;;;;;;4.18;74.65;100101.31;4912586;29;20065;-96
2024/02/20 04:03:25;;;;;;;38.15;21.42;;;;;;;4.21;74.73;100097.41;4911730;29;20031;-96
2024/02/20 04:05:51;;;;;;;42.40;21.02;;;;;;;4.25;73.97;100088.78;4912010;29;20058;-96
2024/02/20 04:08:21;;;;;;;43.35;21.73;;;;;;;4.43;74.55;100101.44;4910385;29;20041;-96
2024/02/20 04:10:47;;;;;;;35.45;21.08;;;;;;;4.59;73.57;100116.16;4912541;29;20082;-96
2024/02/20 04:13:13;;;;;;;33.28;20.73;;;;;;;4.71;73.09;100111.00;4910785;29;20035;-96
2024/02/20 04:15:40;;;;;;;37.90;20.90;;;;;;;4.71;72.77;100103.00;4910096;29;20050;-96
2024/02/20 04:18:09;;;;;;;41.60;18.65;;;;;;;4.53;73.80;100106.34;4910867;29;20091;-96
2024/02/20 04:20:34;;;;;;;39.92;19.73;;;;;;;4.49;73.63;100096.31;4911115;29;20034;-96
2024/02/20 04:23:03;;;;;;;29.92;19.48;;;;;;;4.52;73.43;100109.22;4910582;28;20031;-96
2024/02/20 04:25:29;;;;;;;30.90;18.92;;;;;;;4.48;72.94;100092.00;4914638;29;20032;-96
2024/02/20 04:28:06;;;;;;;31.08;18.30;;;;;;;4.58;72.45;100095.84;4914709;29;20055;-96
2024/02/20 04:30:34;;;;;;;34.67;18.08;;;;;;;4.84;73.03;100105.59;4915645;29;20478;-96
2024/02/20 04:32:59;;;;;;;26.88;16.20;;;;;;;4.92;73.20;100104.53;4914080;29;20035;-96
2024/02/20 04:35:25;;;;;;;49.58;34.90;;;;;;;4.85;72.41;100101.06;4912117;29;20493;-96
2024/02/20 04:37:53;;;;;;;35.92;19.02;;;;;;;4.71;72.75;100097.66;4912399;29;20027;-96
2024/02/20 04:58:06;;;;;;;32.53;18.45;;;;;;;4.90;72.84;100111.94;674051;23;20317;-89
2024/02/20 05:00:36;;;;;;;39.55;18.65;;;;;;;4.93;72.36;100108.81;4957643;28;20050;-96
2024/02/20 05:17:50;;;;;;;37.90;18.75;;;;;;;4.69;72.39;100117.56;5159134;23;20053;-95
2024/02/20 05:20:16;;;;;;;36.05;18.73;;;;;;;4.75;72.96;100127.38;4929365;28;20031;-96
2024/02/20 05:22:42;;;;;;;27.67;17.90;;;;;;;4.76;72.97;100115.69;4929776;28;20019;-94
2024/02/20 05:25:08;;;;;;;31.55;18.50;;;;;;;4.85;72.25;100125.09;4942182;28;20053;-95
2024/02/20 05:31:29;;;;;;;34.03;19.10;;;;;;;5.09;71.92;100136.88;5109819;23;20094;-96
2024/02/20 05:53:57;;;;;;;40.97;22.42;;;;;;;5.16;71.65;100136.84;4957094;28;20106;-94
2024/02/20 05:56:23;;;;;;;44.67;22.15;;;;;;;5.11;71.61;100137.50;4913742;29;20051;-95
2024/02/20 05:58:50;;;;;;;39.67;21.42;;;;;;;5.20;71.77;100143.38;4918886;29;20391;-95
2024/02/20 06:01:15;;;;;;;43.17;22.67;;;;;;;5.24;71.49;100141.94;4910182;29;20019;-94
2024/02/20 06:03:44;;;;;;;45.85;24.40;;;;;;;5.26;71.18;100150.53;4928788;29;20026;-96
2024/02/20 06:06:13;;;;;;;52.97;25.95;;;;;;;5.21;71.60;100151.19;4909773;29;20027;-94
2024/02/20 06:08:44;;;;;;;49.33;25.98;;;;;;;5.29;71.40;100152.78;4915905;28;20154;-96
2024/02/20 06:11:21;;;;;;;69.97;33.78;;;;;;;5.30;71.39;100145.59;4931527;28;20043;-96
2024/02/20 06:14:22;;;;;;;50.03;24.35;;;;;;;5.28;71.81;100143.13;4940342;28;20023;-96
2024/02/20 06:16:59;;;;;;;54.10;23.98;;;;;;;5.30;71.67;100162.44;4940846;28;20193;-96
2024/02/20 06:19:25;;;;;;;45.03;25.50;;;;;;;5.29;71.59;100168.78;4915861;29;20055;-96
2024/02/20 06:21:53;;;;;;;45.28;25.58;;;;;;;5.31;72.47;100168.59;4934132;29;20485;-96
2024/02/20 06:24:19;;;;;;;65.55;40.83;;;;;;;5.45;72.46;100168.28;4950460;29;20043;-95
2024/02/20 06:26:45;;;;;;;69.57;39.53;;;;;;;5.53;71.97;100166.41;4933767;23;20091;-95
2024/02/20 06:29:13;;;;;;;42.78;24.65;;;;;;;5.59;72.04;100185.06;4929281;29;20051;-96
2024/02/20 06:31:40;;;;;;;34.47;23.00;;;;;;;5.35;72.01;100157.25;4913680;29;20061;-92
2024/02/20 06:34:20;;;;;;;;;;;;;;;;;;;;;
2024/02/20 06:36:52;;;;;;;41.75;26.92;;;;;;;5.31;73.00;100176.59;4976154;28;20094;-96
2024/02/20 06:39:18;;;;;;;41.17;22.80;;;;;;;5.43;73.49;100178.38;4923561;29;20057;-96
2024/02/20 06:42:21;;;;;;;39.97;23.58;;;;;;;5.41;73.54;100180.44;4914084;29;20139;-95
2024/02/20 06:44:49;;;;;;;56.20;29.85;;;;;;;5.09;73.80;100179.59;4932010;29;20032;-94
2024/02/20 06:47:15;;;;;;;46.30;25.42;;;;;;;5.11;74.36;100179.38;4920220;29;20039;-94
2024/02/20 06:49:41;;;;;;;38.92;23.08;;;;;;;5.24;73.92;100179.31;4913178;29;20154;-94
2024/02/20 06:52:09;;;;;;;43.08;22.67;;;;;;;5.29;73.35;100174.13;4915782;29;20031;-95
2024/02/20 06:57:57;;;;;;;;;;;;;;;;;;;;;
2024/02/20 07:00:41;;;;;;;;;;;;;;;;;;;;;
2024/02/20 07:03:10;;;;;;;45.78;26.55;;;;;;;5.58;72.49;100186.09;5018487;23;20078;-95
2024/02/20 07:05:41;;;;;;;39.35;23.80;;;;;;;5.50;72.95;100177.50;4941008;28;20034;-96
2024/02/20 07:08:08;;;;;;;48.75;23.23;;;;;;;5.57;73.41;100175.63;4946488;28;20022;-96
2024/02/20 07:13:12;;;;;;;41.22;23.48;;;;;;;5.82;73.07;100203.19;5142265;23;20063;-96
2024/02/20 07:15:39;;;;;;;38.95;23.98;;;;;;;5.86;73.85;100209.75;4930153;29;20043;-96
2024/02/20 07:18:09;;;;;;;43.28;23.02;;;;;;;5.83;73.61;100207.53;4930419;29;20031;-95
2024/02/20 07:21:29;;;;;;;40.83;23.52;;;;;;;5.96;73.41;100209.31;4931245;29;20039;-96
2024/02/20 07:23:55;;;;;;;44.25;23.27;;;;;;;5.99;74.37;100198.16;4949679;29;20012;-94
2024/02/20 07:26:28;;;;;;;48.35;27.83;;;;;;;5.86;75.00;100200.91;4928493;29;20043;-95
2024/02/20 07:29:10;;;;;;;;;;;;;;;;;;;;;
2024/02/20 07:39:54;;;;;;;46.38;26.27;;;;;;;6.14;74.20;100203.16;4940942;28;20051;-96
2024/02/20 07:42:21;;;;;;;49.35;27.95;;;;;;;6.27;74.18;100194.25;4902057;29;20079;-96
2024/02/20 07:44:47;;;;;;;45.58;26.23;;;;;;;6.32;73.50;100183.69;4907196;29;20399;-96
2024/02/20 07:47:20;;;;;;;41.88;26.38;;;;;;;6.48;73.44;100199.16;4903504;29;20059;-96
2024/02/20 07:49:47;;;;;;;49.50;28.42;;;;;;;6.43;73.52;100198.19;4911396;29;20042;-96
2024/02/20 07:52:12;;;;;;;50.90;26.90;;;;;;;6.23;73.42;100180.47;4904179;29;20039;-94
2024/02/20 07:57:54;;;;;;;39.05;23.15;;;;;;;6.17;74.01;100194.72;5498276;23;20061;-94
2024/02/20 08:00:23;;;;;;;43.63;23.45;;;;;;;6.16;74.05;100193.06;4953008;28;20034;-95
2024/02/20 08:05:30;;;;;;;45.10;26.40;;;;;;;6.11;74.37;100176.88;5436103;23;20092;-96
2024/02/20 08:08:23;;;;;;;70.65;39.33;;;;;;;6.19;74.01;100170.44;4974123;28;20047;-96
2024/02/20 08:11:36;;;;;;;54.67;30.35;;;;;;;6.36;74.51;100206.28;4972326;28;20108;-94
2024/02/20 08:14:01;;;;;;;44.72;26.88;;;;;;;5.92;75.55;100193.88;4973772;28;20080;-92
2024/02/20 08:17:03;;;;;;;45.70;27.35;;;;;;;5.82;76.71;100187.16;4952927;28;20038;-96
2024/02/20 08:19:28;;;;;;;47.10;26.40;;;;;;;5.93;76.58;100209.69;4935243;28;20096;-96
2024/02/20 08:21:57;;;;;;;46.67;26.45;;;;;;;6.01;76.03;100192.59;4969497;28;20027;-96
2024/02/20 08:30:42;;;;;;;46.83;26.42;;;;;;;6.46;75.33;100225.31;4956854;28;20052;-96
2024/02/20 08:47:44;;;;;;;;;;;;;;;;;;;;;
2024/02/20 09:12:16;;;;;;;41.30;26.63;;;;;;;6.93;74.10;100210.63;4928290;29;20052;-94
2024/02/20 09:14:42;;;;;;;45.83;28.17;;;;;;;7.12;73.99;100220.31;4894848;29;20028;-96
2024/02/20 09:17:07;;;;;;;55.47;31.33;;;;;;;7.21;73.45;100223.50;4881051;29;20025;-94
2024/02/20 09:27:47;;;;;;;44.67;27.58;;;;;;;7.18;73.70;100229.28;4969973;28;20051;-95
2024/02/20 09:30:19;;;;;;;49.72;28.55;;;;;;;7.06;74.40;100227.38;4931947;29;20043;-96
2024/02/20 10:04:35;;;;;;;46.58;27.23;;;;;;;6.78;75.80;100219.03;5016725;23;20050;-95
2024/02/20 10:07:40;;;;;;;50.30;28.95;;;;;;;6.74;75.92;100215.97;4976759;28;20041;-96
2024/02/20 10:15:40;;;;;;;44.85;24.60;;;;;;;7.01;75.25;100202.31;4966535;28;20071;-96
2024/02/20 10:18:19;;;;;;;42.78;22.95;;;;;;;7.05;74.70;100195.47;4936688;29;20043;-96
2024/02/20 10:21:21;;;;;;;40.58;23.73;;;;;;;7.09;74.96;100184.06;4949353;28;20034;-96
2024/02/20 10:27:24;;;;;;;45.80;26.15;;;;;;;7.26;75.00;100183.44;4951416;28;20055;-96
2024/02/20 10:33:04;;;;;;;44.42;27.77;;;;;;;7.63;74.21;100210.16;5488448;23;20330;31
2024/02/20 10:36:24;;;;;;;49.53;28.10;;;;;;;7.75;73.49;100202.97;5094823;23;20804;-96
2024/02/20 10:38:51;;;;;;;42.75;25.25;;;;;;;7.55;73.92;100172.94;5125542;23;20070;-96
2024/02/20 10:49:52;;;;;;;42.65;25.40;;;;;;;8.07;72.36;100191.94;4962021;28;20102;-95
2024/02/20 10:52:31;;;;;;;;;;;;;;;;;;;;;
2024/02/20 10:55:22;;;;;;;40.63;23.40;;;;;;;7.89;73.52;100174.09;4944367;23;20063;-96
2024/02/20 10:58:00;;;;;;;41.45;23.25;;;;;;;8.04;73.04;100165.59;4910375;29;20131;-96
2024/02/20 11:00:32;;;;;;;37.78;22.50;;;;;;;8.16;71.81;100144.97;4917575;29;20119;-95
2024/02/20 11:31:38;;;;;;;41.35;26.77;;;;;;;8.61;71.17;100140.84;5575970;23;20012;-92
2024/02/20 11:34:18;;;;;;;37.35;23.00;;;;;;;8.77;70.86;100164.28;4928177;29;20035;-93
2024/02/20 11:36:52;;;;;;;35.95;22.42;;;;;;;8.83;70.35;100157.97;4951226;28;20488;-92
2024/02/20 11:39:31;;;;;;;35.33;21.35;;;;;;;8.72;70.22;100128.47;4949453;29;20042;-96
2024/02/20 11:42:12;;;;;;;40.17;22.92;;;;;;;8.66;71.18;100131.03;4947403;29;20070;-96
2024/02/20 12:20:21;;;;;;;68.75;34.17;;;;;;;8.98;71.12;100113.66;5201729;23;20050;-93
2024/02/20 12:23:40;;;;;;;56.03;32.58;;;;;;;9.03;70.52;100138.75;4957983;28;20034;-96
2024/02/20 12:28:45;;;;;;;32.22;19.80;;;;;;;8.93;69.59;100098.28;5210128;23;20062;-93
2024/02/20 12:53:11;;;;;;;55.95;20.70;;;;;;;9.52;66.91;100111.41;1114550;23;21064;-87
2024/02/20 12:55:43;;;;;;;32.70;19.50;;;;;;;9.37;67.89;100079.72;4933888;29;20070;-94
2024/02/20 12:58:10;;;;;;;32.35;18.27;;;;;;;9.30;67.61;100101.38;4926076;29;20099;-93
2024/02/20 13:00:36;;;;;;;34.20;18.73;;;;;;;9.41;66.95;100094.31;4920075;28;20065;-94
2024/02/20 13:03:04;;;;;;;31.35;19.23;;;;;;;9.65;66.47;100091.44;4919496;29;20027;-95
2024/02/20 13:05:31;;;;;;;34.22;19.70;;;;;;;9.61;65.79;100096.53;4935071;29;20047;-95
2024/02/20 13:08:01;;;;;;;30.33;17.50;;;;;;;9.80;64.74;100098.97;4932295;29;20039;-95
2024/02/20 13:10:33;;;;;;;34.72;19.30;;;;;;;9.77;65.09;100089.50;4916816;28;20493;-94
2024/02/20 13:12:59;;;;;;;31.77;18.05;;;;;;;9.87;64.92;100084.28;4923509;29;20077;-95
2024/02/20 13:15:28;;;;;;;28.42;18.40;;;;;;;9.90;64.87;100075.72;4918591;29;20031;-95
2024/02/20 13:18:00;;;;;;;26.30;16.55;;;;;;;10.13;65.03;100103.50;5062750;23;20132;-95
2024/02/20 13:20:36;;;;;;;31.73;18.50;;;;;;;9.85;64.82;100078.31;4942391;29;20043;-96
2024/02/20 13:23:04;;;;;;;30.33;18.15;;;;;;;9.98;65.34;100114.03;4934835;29;20038;-95
2024/02/20 13:25:42;;;;;;;28.67;17.85;;;;;;;9.78;64.16;100084.97;4922200;29;20047;-94
2024/02/20 13:28:11;;;;;;;30.13;17.33;;;;;;;9.65;64.64;100089.59;4907452;29;20023;-94
2024/02/20 13:30:36;;;;;;;28.52;17.95;;;;;;;9.75;64.44;100088.13;4917031;28;20501;-93
2024/02/20 13:33:05;;;;;;;27.23;17.30;;;;;;;9.72;64.46;100097.50;4915055;29;20035;-95
2024/02/20 13:35:30;;;;;;;27.73;17.55;;;;;;;9.80;64.79;100097.09;4918288;29;20114;-94
2024/02/20 13:37:59;;;;;;;28.10;16.67;;;;;;;9.90;64.68;100099.13;4930314;29;20057;-95
2024/02/20 13:40:37;;;;;;;29.45;17.40;;;;;;;9.56;66.26;100092.94;4923170;28;20397;-95
2024/02/20 13:43:05;;;;;;;26.70;17.58;;;;;;;9.47;66.41;100095.22;4918028;29;20129;-95
2024/02/20 13:55:49;;;;;;;30.63;18.55;;;;;;;9.98;66.23;100098.72;4955378;28;20061;-94
2024/02/20 13:58:15;;;;;;;36.95;20.48;;;;;;;9.97;65.78;100075.56;4937009;28;20382;-95
2024/02/20 14:00:44;;;;;;;35.03;21.92;;;;;;;10.05;65.58;100069.75;4919774;28;20035;-95
2024/02/20 14:03:10;;;;;;;42.55;20.52;;;;;;;10.13;65.90;100081.97;4929425;29;20039;-96
2024/02/20 14:05:35;;;;;;;34.47;20.20;;;;;;;10.31;64.64;100075.50;4920668;29;20474;-96
2024/02/20 14:08:01;;;;;;;37.53;21.38;;;;;;;10.34;65.20;100080.41;4918268;28;20121;-95
2024/02/20 14:10:28;;;;;;;34.30;19.67;;;;;;;10.48;63.91;100078.16;4939667;29;20469;-95
2024/02/20 14:12:54;;;;;;;31.92;18.02;;;;;;;10.42;63.16;100077.28;4934182;29;20034;-94
2024/02/20 14:15:20;;;;;;;31.95;17.48;;;;;;;10.30;63.71;100069.31;4914226;28;20027;-96
2024/02/20 14:17:49;;;;;;;29.08;16.88;;;;;;;10.42;63.34;100088.03;4919912;29;20442;-94
2024/02/20 14:20:15;;;;;;;30.05;17.75;;;;;;;10.42;63.12;100079.97;4916513;28;20494;-94
2024/02/20 14:22:41;;;;;;;36.85;16.75;;;;;;;10.44;63.34;100087.81;4917219;28;20035;-96
2024/02/20 14:25:07;;;;;;;33.97;20.88;;;;;;;10.44;63.10;100087.81;4908212;28;20078;-92
2024/02/20 14:27:38;;;;;;;29.17;17.73;;;;;;;10.25;63.71;100060.31;4923080;28;20114;-94
2024/02/20 14:30:04;;;;;;;33.22;17.48;;;;;;;9.94;64.97;100077.91;4912240;29;20517;-95
2024/02/20 14:32:30;;;;;;;50.55;25.83;;;;;;;9.69;65.40;100073.78;4924201;29;20186;-94
2024/02/20 14:35:22;;;;;;;33.70;18.48;;;;;;;9.54;66.82;100078.91;4918139;29;20047;-96
2024/02/20 14:37:48;;;;;;;38.38;19.52;;;;;;;9.33;67.44;100088.50;4932717;29;20090;-95
2024/02/20 14:40:58;;;;;;;36.00;20.60;;;;;;;9.15;67.71;100084.16;4934341;29;20039;-96
2024/02/20 14:43:41;;;;;;;28.02;16.38;;;;;;;8.95;67.33;100066.63;4931207;29;20046;-95
2024/02/20 15:06:47;;;;;;;;;;;;;;;;;;;;;
2024/02/20 15:09:42;;;;;;;32.78;16.90;;;;;;;8.93;68.61;100092.91;4995071;28;20069;-96
2024/02/20 15:12:37;;;;;;;37.00;17.70;;;;;;;8.81;68.11;100067.97;4972422;28;20027;-95
2024/02/20 15:15:18;;;;;;;30.50;16.98;;;;;;;8.93;67.54;100092.91;4915161;28;20042;-96
2024/02/20 15:17:54;;;;;;;26.85;17.35;;;;;;;8.96;67.42;100076.31;4941585;29;20065;-96
2024/02/20 15:20:19;;;;;;;26.73;16.50;;;;;;;9.09;67.05;100083.28;4912649;29;20024;-94
2024/02/20 15:22:55;;;;;;;30.48;17.27;;;;;;;9.05;67.27;100077.56;4910765;29;20030;-95
2024/02/20 15:25:20;;;;;;;27.45;15.95;;;;;;;9.05;66.59;100082.13;4909521;29;20035;-93
2024/02/20 15:27:52;;;;;;;28.90;16.08;;;;;;;9.01;66.44;100073.72;4912618;28;20070;-94
2024/02/20 15:32:57;;;;;;;32.15;16.77;;;;;;;9.02;66.37;100074.53;5212284;23;20065;-96
2024/02/20 15:35:48;;;;;;;26.60;17.38;;;;;;;8.94;66.56;100077.59;5173475;23;20056;-96
2024/02/20 15:38:14;;;;;;;33.97;18.10;;;;;;;8.96;67.01;100089.72;4932879;29;20047;-94
2024/02/20 15:40:41;;;;;;;34.53;20.15;;;;;;;8.90;66.91;100088.00;4941501;29;20032;-96
2024/02/20 15:43:13;;;;;;;32.70;20.40;;;;;;;8.85;66.44;100085.22;4926679;29;20564;-96
2024/02/20 15:45:43;;;;;;;31.60;19.20;;;;;;;8.94;66.60;100102.59;4935106;29;20026;-96
2024/02/20 15:50:45;;;;;;;33.63;19.40;;;;;;;8.88;66.73;100099.00;4963924;28;20062;-96
2024/02/20 15:53:19;;;;;;;32.95;19.40;;;;;;;8.81;67.21;100097.50;4928841;29;20036;-96
2024/02/20 15:55:45;;;;;;;36.65;20.80;;;;;;;8.74;67.20;100096.84;4937827;29;20498;-96
2024/02/20 16:06:54;;;;;;;58.53;31.30;;;;;;;8.34;68.52;100081.47;5239997;23;20189;-95
2024/02/20 16:09:20;;;;;;;55.17;31.25;;;;;;;8.30;68.61;100083.84;4947787;28;20458;-94
2024/02/20 16:11:46;;;;;;;50.28;28.13;;;;;;;8.32;68.61;100100.50;4927471;28;20031;-94
2024/02/20 16:14:12;;;;;;;48.88;26.27;;;;;;;8.34;68.66;100111.81;4929627;28;20031;-95
2024/02/20 16:16:37;;;;;;;53.97;28.83;;;;;;;8.19;69.05;100096.19;4929268;28;20069;-96
2024/02/20 16:19:04;;;;;;;58.10;33.53;;;;;;;8.04;69.04;100090.50;4926778;29;20038;-95
2024/02/20 16:21:29;;;;;;;56.92;34.05;;;;;;;8.05;69.66;100094.81;4933861;28;20039;-94
2024/02/20 16:24:22;;;;;;;;;;;;;;;;;;;;;
2024/02/20 16:26:52;;;;;;;115.90;53.60;;;;;;;7.95;69.59;100106.13;4953424;28;20114;-96
2024/02/20 16:29:18;;;;;;;98.35;50.13;;;;;;;7.86;69.41;100102.97;4933794;28;20027;-96
2024/02/20 16:32:10;;;;;;;100.40;49.17;;;;;;;7.77;69.41;100101.69;4932356;28;20109;-95
2024/02/20 16:34:37;;;;;;;90.85;47.72;;;;;;;7.67;69.80;100109.47;4950637;28;20027;-96
2024/02/20 16:37:08;;;;;;;104.47;52.38;;;;;;;7.64;69.85;100099.22;4931041;28;20049;-96
2024/02/20 16:39:36;;;;;;;95.40;54.00;;;;;;;7.59;70.13;100099.91;4932646;28;20034;-95
2024/02/20 16:42:12;;;;;;;98.00;53.35;;;;;;;7.68;70.11;100109.25;4933116;28;20485;-95
2024/02/20 16:44:37;;;;;;;114.63;63.97;;;;;;;7.62;69.67;100110.16;4951487;28;20026;-96
2024/02/20 16:47:06;;;;;;;103.72;56.28;;;;;;;7.61;70.06;100103.16;4948078;28;20473;-95
2024/02/20 16:49:32;;;;;;;92.50;52.03;;;;;;;7.66;70.40;100115.91;4932001;28;20035;-95
2024/02/20 16:51:59;;;;;;;112.30;61.38;;;;;;;7.72;70.25;100125.69;4930626;28;20031;-96
2024/02/20 16:54:32;;;;;;;103.35;56.50;;;;;;;7.66;70.21;100119.38;4947614;28;20040;-96
2024/02/20 16:56:57;;;;;;;102.25;52.65;;;;;;;7.46;70.69;100111.66;4947092;28;20106;-96
2024/02/20 16:59:23;;;;;;;94.53;53.80;;;;;;;7.38;71.12;100111.16;4933097;28;20054;-95
2024/02/20 17:01:54;;;;;;;92.15;52.13;;;;;;;7.46;70.93;100125.03;4931063;28;20120;-95
2024/02/20 17:04:23;;;;;;;48.55;25.90;;;;;;;7.26;71.61;100117.31;4947091;28;20094;-95
2024/02/20 17:06:49;;;;;;;103.78;59.03;;;;;;;7.25;71.99;100129.06;4931589;28;20050;-95
2024/02/20 17:09:15;;;;;;;55.60;32.97;;;;;;;7.26;72.17;100133.38;4932141;28;20038;-95